createdAt,value
2023-02-11T00:00:21.023Z,101608.41
2023-02-11T00:01:33.097Z,101614.31
2023-02-11T00:02:27.109Z,101600.31
2023-02-11T00:03:21.068Z,101588.63
2023-02-11T00:04:16.066Z,101608.84
2023-02-11T00:05:10.091Z,101601.38
2023-02-11T00:06:16.027Z,101606.56
2023-02-11T00:06:57.055Z,101584.94
2023-02-11T00:07:41.116Z,101608.31
2023-02-11T00:08:23.055Z,101596.19
2023-02-11T00:09:04.138Z,101593.88
2023-02-11T00:09:45.074Z,101609.56
2023-02-11T00:10:25.134Z,101578.09
2023-02-11T00:11:06.047Z,101604.00
2023-02-11T00:11:46.123Z,101611.91
2023-02-11T00:12:26.050Z,101600.06
2023-02-11T00:13:06.156Z,101587.53
2023-02-11T00:13:46.042Z,101587.03
2023-02-11T00:14:26.163Z,101595.66
2023-02-11T00:15:06.076Z,101602.53
2023-02-11T00:15:46.115Z,101591.25
2023-02-11T00:16:28.077Z,101586.72
2023-02-11T00:17:08.103Z,101593.72
2023-02-11T00:17:48.132Z,101599.88
2023-02-11T00:18:29.143Z,101586.53
2023-02-11T00:19:12.028Z,101596.91
2023-02-11T00:19:56.155Z,101580.00
2023-02-11T00:20:36.072Z,101584.59
2023-02-11T00:21:20.130Z,101593.44
2023-02-11T00:22:00.052Z,101569.91
2023-02-11T00:22:40.080Z,101599.28
2023-02-11T00:23:21.054Z,101581.00
2023-02-11T00:24:05.117Z,101594.97
2023-02-11T00:24:45.013Z,101590.03
2023-02-11T00:25:25.079Z,101577.03
2023-02-11T00:26:05.037Z,101595.53
2023-02-11T00:26:45.078Z,101589.13
2023-02-11T00:27:25.077Z,101581.19
2023-02-11T00:28:06.089Z,101600.59
2023-02-11T00:28:47.057Z,101602.69
2023-02-11T00:29:27.077Z,101575.59
2023-02-11T00:30:09.061Z,101590.69
2023-02-11T00:30:49.181Z,101597.50
2023-02-11T00:31:32.135Z,101596.41
2023-02-11T00:32:14.108Z,101596.41
2023-02-11T00:32:54.040Z,101575.25
2023-02-11T00:33:34.090Z,101585.34
2023-02-11T00:34:14.037Z,101583.34
2023-02-11T00:34:55.238Z,101584.44
2023-02-11T00:35:37.028Z,101572.09
2023-02-11T00:36:23.141Z,101589.06
2023-02-11T00:37:03.027Z,101598.34
2023-02-11T00:37:57.007Z,101595.75
2023-02-11T00:38:50.999Z,101572.44
2023-02-11T00:39:39.027Z,101584.38
2023-02-11T00:40:15.937Z,101574.03
2023-02-11T00:41:03.055Z,101577.56
2023-02-11T00:41:37.174Z,101570.47
2023-02-11T00:42:23.996Z,101583.31
2023-02-11T00:42:58.326Z,101579.09
2023-02-11T00:43:45.026Z,101575.22
2023-02-11T00:44:19.051Z,101565.00
2023-02-11T00:44:59.022Z,101569.88
2023-02-11T00:45:39.081Z,101551.06
2023-02-11T00:46:20.032Z,101558.25
2023-02-11T00:47:00.074Z,101554.81
2023-02-11T00:47:40.010Z,101561.53
2023-02-11T00:48:21.088Z,101542.34
2023-02-11T00:49:05.023Z,101548.81
2023-02-11T00:49:45.057Z,101548.72
2023-02-11T00:50:26.047Z,101544.47
2023-02-11T00:51:06.040Z,101525.38
2023-02-11T00:51:45.981Z,101519.22
2023-02-11T00:52:26.219Z,101531.16
2023-02-11T00:53:05.984Z,101546.16
2023-02-11T00:53:46.087Z,101550.47
2023-02-11T00:54:27.818Z,101552.09
2023-02-11T00:55:09.120Z,101532.00
2023-02-11T00:55:49.308Z,101549.63
2023-02-11T00:56:30.070Z,101528.16
2023-02-11T00:57:10.992Z,101527.22
2023-02-11T00:57:51.167Z,101517.47
2023-02-11T00:58:30.981Z,101523.69
2023-02-11T00:59:11.033Z,101497.44
2023-02-11T00:59:50.982Z,101518.03
2023-02-11T01:00:31.111Z,101500.16
2023-02-11T01:01:12.051Z,101519.13
2023-02-11T01:01:52.074Z,101504.28
2023-02-11T01:02:31.989Z,101507.66
2023-02-11T01:03:26.012Z,101514.66
2023-02-11T01:04:19.975Z,101504.47
2023-02-11T01:05:13.972Z,101494.25
2023-02-11T01:06:07.969Z,101516.25
2023-02-11T01:06:48.037Z,101515.44
2023-02-11T01:07:28.068Z,101496.44
2023-02-11T01:08:08.999Z,101493.88
2023-02-11T01:08:49.088Z,101508.44
2023-02-11T01:09:28.954Z,101511.34
2023-02-11T01:10:09.169Z,101485.66
2023-02-11T01:10:49.943Z,101486.91
2023-02-11T01:11:30.126Z,101505.50
2023-02-11T01:12:10.980Z,101491.22
2023-02-11T01:12:51.052Z,101502.22
2023-02-11T01:13:33.004Z,101474.78
2023-02-11T01:14:13.102Z,101480.47
2023-02-11T01:14:52.971Z,101482.59
2023-02-11T01:15:33.100Z,101459.28
2023-02-11T01:16:15.029Z,101493.66
2023-02-11T01:16:55.084Z,101470.09
2023-02-11T01:17:34.999Z,101483.91
2023-02-11T01:18:15.057Z,101462.09
2023-02-11T01:18:55.940Z,101491.47
2023-02-11T01:19:36.021Z,101447.28
2023-02-11T01:20:26.021Z,101457.06
2023-02-11T01:21:06.051Z,101459.34
2023-02-11T01:21:45.995Z,101483.06
2023-02-11T01:22:26.049Z,101473.47
2023-02-11T01:23:06.008Z,101452.41
2023-02-11T01:23:46.045Z,101463.88
2023-02-11T01:24:26.963Z,101465.69
2023-02-11T01:25:08.039Z,101458.41
2023-02-11T01:25:48.096Z,101460.09
2023-02-11T01:26:28.078Z,101460.03
2023-02-11T01:27:07.969Z,101461.00
2023-02-11T01:27:48.022Z,101460.16
2023-02-11T01:28:33.076Z,101447.53
2023-02-11T01:29:26.949Z,101470.19
2023-02-11T01:30:23.008Z,101463.09
2023-02-11T01:31:18.052Z,101462.31
2023-02-11T01:32:12.989Z,101458.78
2023-02-11T01:33:07.027Z,101463.97
2023-02-11T01:33:53.993Z,101463.63
2023-02-11T01:34:27.996Z,101457.69
2023-02-11T01:35:14.958Z,101447.88
2023-02-11T01:35:49.646Z,101475.19
2023-02-11T01:36:36.944Z,101442.66
2023-02-11T01:37:11.007Z,101463.59
2023-02-11T01:37:57.935Z,101454.16
2023-02-11T01:38:33.011Z,101468.44
2023-02-11T01:39:14.954Z,101456.03
2023-02-11T01:39:55.054Z,101455.66
2023-02-11T01:40:35.942Z,101460.69
2023-02-11T01:41:18.995Z,101471.59
2023-02-11T01:41:59.941Z,101464.38
2023-02-11T01:42:39.997Z,101440.06
2023-02-11T01:43:19.950Z,101454.16
2023-02-11T01:43:59.988Z,101446.97
2023-02-11T01:44:44.976Z,101460.97
2023-02-11T01:46:05.045Z,101473.47
2023-02-11T01:46:45.037Z,101481.41
2023-02-11T01:47:26.013Z,101446.38
2023-02-11T01:48:08.963Z,101445.78
2023-02-11T01:48:52.034Z,101463.91
2023-02-11T01:49:39.939Z,101456.81
2023-02-11T01:50:19.973Z,101443.63
2023-02-11T01:50:58.024Z,101448.81
2023-02-11T01:52:13.933Z,101453.94
2023-02-11T01:52:48.028Z,101442.97
2023-02-11T01:53:54.954Z,101432.78
2023-02-11T01:54:51.492Z,101433.00
2023-02-11T01:55:57.947Z,101426.00
2023-02-11T01:56:52.547Z,101420.38
2023-02-11T01:57:43.907Z,101431.81
2023-02-11T01:58:17.976Z,101413.03
2023-02-11T01:59:11.914Z,101433.56
2023-02-11T02:00:04.402Z,101424.84
2023-02-11T02:00:50.936Z,101412.28
2023-02-11T02:01:36.984Z,101400.03
2023-02-11T02:02:34.924Z,101398.59
2023-02-11T02:03:33.992Z,101398.66
2023-02-11T02:04:33.917Z,101370.66
2023-02-11T02:05:46.936Z,101395.41
2023-02-11T02:06:54.948Z,101358.38
2023-02-11T02:08:21.955Z,101366.84
2023-02-11T02:09:22.908Z,101367.53
2023-02-11T02:10:27.920Z,101376.59
2023-02-11T02:11:22.918Z,101370.56
2023-02-11T02:12:09.951Z,101369.06
2023-02-11T02:12:44.059Z,101343.97
2023-02-11T02:13:31.916Z,101367.66
2023-02-11T02:14:06.031Z,101347.34
2023-02-11T02:14:52.914Z,101349.53
2023-02-11T02:15:30.985Z,101348.72
2023-02-11T02:16:23.958Z,101329.81
2023-02-11T02:16:57.951Z,101345.06
2023-02-11T02:17:46.928Z,101324.94
2023-02-11T02:18:56.017Z,101346.00
2023-02-11T02:20:04.910Z,101341.28
2023-02-11T02:21:19.016Z,101338.38
2023-02-11T02:22:10.904Z,101328.78
2023-02-11T02:23:24.966Z,101333.75
2023-02-11T02:25:11.949Z,101316.38
2023-02-11T02:26:24.988Z,101300.75
2023-02-11T02:27:40.904Z,101323.53
2023-02-11T02:29:19.976Z,101336.78
2023-02-11T02:30:52.997Z,101329.75
2023-02-11T02:32:27.909Z,101353.81
2023-02-11T02:33:36.889Z,101339.47
2023-02-11T02:34:51.915Z,101341.66
2023-02-11T02:36:08.890Z,101343.44
2023-02-11T02:37:21.893Z,101340.94
2023-02-11T02:38:42.899Z,101317.72
2023-02-11T02:39:42.891Z,101337.94
2023-02-11T02:40:37.916Z,101329.47
2023-02-11T02:41:26.000Z,101344.84
2023-02-11T02:42:06.856Z,101340.66
2023-02-11T02:42:47.931Z,101323.22
2023-02-11T02:43:29.888Z,101335.38
2023-02-11T02:44:10.017Z,101327.66
2023-02-11T02:44:56.873Z,101325.72
2023-02-11T02:45:36.954Z,101324.00
2023-02-11T02:46:22.920Z,101336.41
2023-02-11T02:47:03.012Z,101336.66
2023-02-11T02:47:42.857Z,101359.72
2023-02-11T02:48:39.955Z,101361.63
2023-02-11T02:49:22.876Z,101374.56
2023-02-11T02:50:02.920Z,101380.53
2023-02-11T02:50:43.895Z,101369.41
2023-02-11T02:51:39.904Z,101383.28
2023-02-11T02:53:13.861Z,101392.03
2023-02-11T02:54:24.854Z,101387.38
2023-02-11T02:56:17.887Z,101384.94
2023-02-11T02:57:42.886Z,101403.31
2023-02-11T02:58:48.919Z,101409.44
2023-02-11T03:00:32.882Z,101412.91
2023-02-11T03:01:30.917Z,101414.09
2023-02-11T03:02:30.862Z,101407.72
2023-02-11T03:04:07.967Z,101389.03
2023-02-11T03:04:58.241Z,101393.66
2023-02-11T03:05:59.878Z,101383.22
2023-02-11T03:07:00.535Z,101394.38
2023-02-11T03:08:37.887Z,101393.56
2023-02-11T03:09:57.890Z,101389.63
2023-02-11T03:10:44.932Z,101386.13
2023-02-11T03:11:26.840Z,101372.69
2023-02-11T03:12:09.925Z,101394.66
2023-02-11T03:12:51.848Z,101400.94
2023-02-11T03:13:36.961Z,101385.53
2023-02-11T03:14:20.885Z,101402.91
2023-02-11T03:15:07.882Z,101376.59
2023-02-11T03:15:46.180Z,101381.94
2023-02-11T03:16:45.852Z,101341.72
2023-02-11T03:17:19.984Z,101390.91
2023-02-11T03:18:10.025Z,101391.59
2023-02-11T03:18:51.360Z,101403.41
2023-02-11T03:19:43.839Z,101403.31
2023-02-11T03:20:25.864Z,101384.66
2023-02-11T03:21:07.925Z,101391.59
2023-02-11T03:21:49.827Z,101381.09
2023-02-11T03:22:41.926Z,101387.50
2023-02-11T03:23:35.864Z,101394.66
2023-02-11T03:24:37.908Z,101382.66
2023-02-11T03:25:18.837Z,101382.97
2023-02-11T03:26:05.912Z,101379.44
2023-02-11T03:26:46.016Z,101363.66
2023-02-11T03:27:52.636Z,101358.69
2023-02-11T03:28:44.819Z,101353.84
2023-02-11T03:29:49.243Z,101375.47
2023-02-11T03:30:42.121Z,101372.97
2023-02-11T03:31:46.863Z,101333.16
2023-02-11T03:32:34.937Z,101335.56
2023-02-11T03:33:25.359Z,101315.81
2023-02-11T03:34:18.826Z,101326.50
2023-02-11T03:35:10.947Z,101316.78
2023-02-11T03:36:17.644Z,101318.16
2023-02-11T03:37:27.872Z,101309.22
2023-02-11T03:38:12.912Z,101277.41
2023-02-11T03:38:51.047Z,101268.47
2023-02-11T03:39:41.817Z,101282.53
2023-02-11T03:40:23.879Z,101278.13
2023-02-11T03:40:58.851Z,101256.09
2023-02-11T03:41:40.844Z,101255.53
2023-02-11T03:42:15.854Z,101263.94
2023-02-11T03:43:01.836Z,101282.84
2023-02-11T03:44:03.870Z,101270.97
2023-02-11T03:45:07.819Z,101287.31
2023-02-11T03:45:48.058Z,101274.91
2023-02-11T03:46:35.819Z,101270.72
2023-02-11T03:47:17.862Z,101276.06
2023-02-11T03:48:24.822Z,101233.94
2023-02-11T03:49:13.889Z,101217.78
2023-02-11T03:49:54.833Z,101237.88
2023-02-11T03:50:37.935Z,101239.44
2023-02-11T03:51:19.867Z,101262.25
2023-02-11T03:52:00.876Z,101270.63
2023-02-11T03:52:42.815Z,101290.06
2023-02-11T03:53:24.008Z,101267.63
2023-02-11T03:54:06.799Z,101272.56
2023-02-11T03:54:48.953Z,101277.28
2023-02-11T03:55:32.838Z,101282.09
2023-02-11T03:56:17.869Z,101299.16
2023-02-11T03:57:02.811Z,101302.88
2023-02-11T03:57:43.853Z,101270.91
2023-02-11T03:58:23.791Z,101295.19
2023-02-11T03:59:04.882Z,101274.78
2023-02-11T04:00:01.828Z,101266.72
2023-02-11T04:00:48.881Z,101263.38
2023-02-11T04:01:28.824Z,101253.84
2023-02-11T04:02:08.861Z,101267.69
2023-02-11T04:02:49.859Z,101242.88
2023-02-11T04:03:33.016Z,101266.22
2023-02-11T04:04:12.794Z,101258.13
2023-02-11T04:04:53.943Z,101244.47
2023-02-11T04:05:33.836Z,101241.59
2023-02-11T04:06:14.843Z,101249.16
2023-02-11T04:06:54.791Z,101238.41
2023-02-11T04:07:35.869Z,101255.03
2023-02-11T04:08:15.786Z,101241.63
2023-02-11T04:08:56.186Z,101264.78
2023-02-11T04:09:36.809Z,101248.44
2023-02-11T04:10:18.914Z,101245.50
2023-02-11T04:10:58.817Z,101240.41
2023-02-11T04:11:39.823Z,101235.66
2023-02-11T04:12:19.793Z,101235.72
2023-02-11T04:12:59.838Z,101245.13
2023-02-11T04:13:39.781Z,101216.97
2023-02-11T04:14:19.862Z,101238.25
2023-02-11T04:14:59.769Z,101228.25
2023-02-11T04:15:40.922Z,101222.22
2023-02-11T04:16:20.846Z,101226.28
2023-02-11T04:17:01.822Z,101219.88
2023-02-11T04:17:42.780Z,101228.72
2023-02-11T04:18:22.827Z,101212.22
2023-02-11T04:19:03.757Z,101225.19
2023-02-11T04:19:44.839Z,101223.88
2023-02-11T04:20:25.801Z,101229.13
2023-02-11T04:21:05.825Z,101203.53
2023-02-11T04:21:45.792Z,101213.53
2023-02-11T04:22:25.869Z,101200.47
2023-02-11T04:23:05.780Z,101194.13
2023-02-11T04:23:46.841Z,101202.84
2023-02-11T04:24:26.757Z,101203.75
2023-02-11T04:25:06.838Z,101189.59
2023-02-11T04:25:46.757Z,101196.09
2023-02-11T04:26:26.811Z,101188.72
2023-02-11T04:27:06.809Z,101179.22
2023-02-11T04:27:47.832Z,101185.06
2023-02-11T04:28:27.830Z,101198.72
2023-02-11T04:29:07.828Z,101194.41
2023-02-11T04:29:47.778Z,101212.50
2023-02-11T04:30:27.836Z,101213.78
2023-02-11T04:31:07.804Z,101208.09
2023-02-11T04:31:48.903Z,101196.91
2023-02-11T04:32:28.767Z,101208.84
2023-02-11T04:33:08.857Z,101206.88
2023-02-11T04:33:48.754Z,101176.94
2023-02-11T04:34:29.895Z,101213.25
2023-02-11T04:35:10.773Z,101203.88
2023-02-11T04:35:52.117Z,101185.03
2023-02-11T04:36:32.761Z,101189.22
2023-02-11T04:37:13.836Z,101185.97
2023-02-11T04:37:53.773Z,101167.53
2023-02-11T04:38:33.820Z,101170.16
2023-02-11T04:39:13.740Z,101155.06
2023-02-11T04:39:54.812Z,101169.88
2023-02-11T04:40:34.764Z,101158.13
2023-02-11T04:41:14.829Z,101165.06
2023-02-11T04:41:54.747Z,101177.78
2023-02-11T04:42:34.822Z,101181.59
2023-02-11T04:43:14.774Z,101167.03
2023-02-11T04:43:55.832Z,101176.81
2023-02-11T04:44:35.748Z,101169.84
2023-02-11T04:45:15.809Z,101180.38
2023-02-11T04:45:55.808Z,101148.75
2023-02-11T04:46:35.822Z,101158.13
2023-02-11T04:47:15.728Z,101165.75
2023-02-11T04:47:56.866Z,101159.53
2023-02-11T04:48:36.777Z,101159.59
2023-02-11T04:49:20.859Z,101180.47
2023-02-11T04:50:00.769Z,101189.59
2023-02-11T04:50:40.853Z,101179.59
2023-02-11T04:51:20.765Z,101159.19
2023-02-11T04:52:01.797Z,101174.44
2023-02-11T04:52:41.749Z,101152.31
2023-02-11T04:53:21.842Z,101180.78
2023-02-11T04:54:01.753Z,101186.50
2023-02-11T04:54:41.820Z,101167.47
2023-02-11T04:55:21.764Z,101158.94
2023-02-11T04:56:02.810Z,101165.31
2023-02-11T04:56:44.765Z,101169.59
2023-02-11T04:57:24.821Z,101154.09
2023-02-11T04:58:04.760Z,101174.94
2023-02-11T04:58:44.792Z,101176.06
2023-02-11T04:59:24.734Z,101180.03
2023-02-11T05:00:05.779Z,101181.66
2023-02-11T05:00:45.761Z,101166.00
2023-02-11T05:01:26.092Z,101172.34
2023-02-11T05:02:06.726Z,101167.09
2023-02-11T05:02:46.811Z,101143.50
2023-02-11T05:03:28.771Z,101141.34
2023-02-11T05:04:09.830Z,101171.00
2023-02-11T05:04:51.773Z,101157.09
2023-02-11T05:05:31.775Z,101153.75
2023-02-11T05:06:12.718Z,101162.09
2023-02-11T05:06:52.830Z,101142.38
2023-02-11T05:07:32.724Z,101149.19
2023-02-11T05:08:14.837Z,101134.13
2023-02-11T05:08:56.744Z,101145.16
2023-02-11T05:09:36.838Z,101127.72
2023-02-11T05:10:16.735Z,101157.03
2023-02-11T05:10:56.783Z,101147.31
2023-02-11T05:11:36.738Z,101155.88
2023-02-11T05:12:18.805Z,101146.88
2023-02-11T05:12:58.726Z,101147.47
2023-02-11T05:13:38.792Z,101148.59
2023-02-11T05:14:18.731Z,101133.63
2023-02-11T05:14:58.799Z,101130.59
2023-02-11T05:15:38.750Z,101145.84
2023-02-11T05:16:19.852Z,101119.41
2023-02-11T05:16:59.825Z,101149.34
2023-02-11T05:17:39.789Z,101137.31
2023-02-11T05:18:21.729Z,101134.22
2023-02-11T05:19:01.792Z,101146.63
2023-02-11T05:19:41.707Z,101138.78
2023-02-11T05:20:22.794Z,101131.84
2023-02-11T05:21:02.741Z,101119.66
2023-02-11T05:21:56.637Z,101133.00
2023-02-11T05:22:40.719Z,101118.53
2023-02-11T05:23:20.765Z,101130.09
2023-02-11T05:24:00.728Z,101126.78
2023-02-11T05:24:41.749Z,101151.50
2023-02-11T05:25:21.711Z,101126.56
2023-02-11T05:26:02.097Z,101153.94
2023-02-11T05:26:42.770Z,101138.53
2023-02-11T05:27:22.798Z,101142.19
2023-02-11T05:28:02.803Z,101140.50
2023-02-11T05:28:44.823Z,101147.47
2023-02-11T05:29:25.729Z,101142.13
2023-02-11T05:30:05.771Z,101174.25
2023-02-11T05:30:45.737Z,101146.41
2023-02-11T05:31:25.792Z,101160.72
2023-02-11T05:32:06.760Z,101174.75
2023-02-11T05:32:47.766Z,101174.22
2023-02-11T05:33:27.712Z,101179.03
2023-02-11T05:34:07.793Z,101156.06
2023-02-11T05:34:47.704Z,101178.84
2023-02-11T05:35:27.806Z,101171.16
2023-02-11T05:36:17.692Z,101169.41
2023-02-11T05:36:58.808Z,101178.97
2023-02-11T05:37:38.785Z,101183.34
2023-02-11T05:38:18.752Z,101154.03
2023-02-11T05:38:58.672Z,101169.94
2023-02-11T05:39:38.746Z,101179.66
2023-02-11T05:40:18.751Z,101166.66
2023-02-11T05:40:59.751Z,101164.91
2023-02-11T05:41:39.699Z,101160.34
2023-02-11T05:42:20.757Z,101190.47
2023-02-11T05:43:00.728Z,101188.59
2023-02-11T05:43:40.840Z,101185.13
2023-02-11T05:44:20.678Z,101164.41
2023-02-11T05:45:01.785Z,101166.47
2023-02-11T05:45:41.649Z,101152.66
2023-02-11T05:46:21.768Z,101161.06
2023-02-11T05:47:01.756Z,101177.91
2023-02-11T05:47:41.771Z,101182.72
2023-02-11T05:48:21.691Z,101169.16
2023-02-11T05:49:02.764Z,101184.53
2023-02-11T05:49:42.676Z,101178.38
2023-02-11T05:50:22.750Z,101176.72
2023-02-11T05:51:02.662Z,101171.66
2023-02-11T05:51:42.728Z,101184.59
2023-02-11T05:52:30.683Z,101182.91
2023-02-11T05:53:05.595Z,101159.00
2023-02-11T05:53:45.719Z,101201.81
2023-02-11T05:54:25.759Z,101180.41
2023-02-11T05:55:05.687Z,101166.41
2023-02-11T05:55:45.767Z,101174.75
2023-02-11T05:56:25.668Z,101170.28
2023-02-11T05:57:06.792Z,101179.72
2023-02-11T05:57:46.668Z,101196.97
2023-02-11T05:58:26.810Z,101185.19
2023-02-11T05:59:07.677Z,101198.13
2023-02-11T05:59:47.779Z,101164.84
2023-02-11T06:00:27.680Z,101172.44
2023-02-11T06:01:07.740Z,101182.66
2023-02-11T06:01:48.671Z,101172.91
2023-02-11T06:02:28.774Z,101158.88
2023-02-11T06:03:10.689Z,101148.44
2023-02-11T06:03:51.360Z,101170.63
2023-02-11T06:04:31.682Z,101187.19
2023-02-11T06:05:11.715Z,101157.53
2023-02-11T06:05:52.880Z,101149.88
2023-02-11T06:06:33.729Z,101161.41
2023-02-11T06:07:13.703Z,101138.94
2023-02-11T06:07:54.099Z,101149.97
2023-02-11T06:08:33.666Z,101143.63
2023-02-11T06:09:13.718Z,101152.47
2023-02-11T06:09:53.666Z,101158.34
2023-02-11T06:10:33.766Z,101178.25
2023-02-11T06:11:14.652Z,101156.91
2023-02-11T06:11:54.703Z,101127.72
2023-02-11T06:12:35.667Z,101158.19
2023-02-11T06:13:18.518Z,101160.19
2023-02-11T06:13:58.696Z,101148.31
2023-02-11T06:14:41.755Z,101161.41
2023-02-11T06:15:21.672Z,101139.69
2023-02-11T06:16:06.823Z,101133.31
2023-02-11T06:16:46.657Z,101143.56
2023-02-11T06:17:31.626Z,101137.75
2023-02-11T06:18:12.668Z,101143.34
2023-02-11T06:18:52.748Z,101131.94
2023-02-11T06:19:33.669Z,101121.84
2023-02-11T06:20:15.731Z,101147.56
2023-02-11T06:20:55.675Z,101139.00
2023-02-11T06:21:43.766Z,101115.41
2023-02-11T06:22:24.646Z,101136.00
2023-02-11T06:23:04.707Z,101112.81
2023-02-11T06:23:45.633Z,101137.72
2023-02-11T06:24:50.951Z,101118.50
2023-02-11T06:25:26.649Z,101132.47
2023-02-11T06:26:21.670Z,101102.53
2023-02-11T06:27:17.704Z,101119.09
2023-02-11T06:28:11.698Z,101135.59
2023-02-11T06:29:05.830Z,101098.19
2023-02-11T06:30:00.635Z,101098.72
2023-02-11T06:30:54.718Z,101093.63
2023-02-11T06:31:44.740Z,101100.28
2023-02-11T06:32:42.275Z,101092.41
2023-02-11T06:33:28.829Z,101121.81
2023-02-11T06:34:05.753Z,101108.34
2023-02-11T06:34:56.765Z,101111.09
2023-02-11T06:35:30.769Z,101113.69
2023-02-11T06:36:27.698Z,101110.97
2023-02-11T06:37:08.708Z,101118.78
2023-02-11T06:38:02.666Z,101098.03
2023-02-11T06:39:00.474Z,101113.44
2023-02-11T06:39:54.656Z,101119.63
2023-02-11T06:40:51.692Z,101110.50
2023-02-11T06:41:45.769Z,101117.78
2023-02-11T06:42:32.697Z,101117.41
2023-02-11T06:43:06.682Z,101106.38
2023-02-11T06:43:54.626Z,101123.69
2023-02-11T06:44:28.663Z,101107.50
2023-02-11T06:45:17.653Z,101091.22
2023-02-11T06:45:51.971Z,101110.59
2023-02-11T06:46:38.657Z,101107.25
2023-02-11T06:47:13.719Z,101107.25
2023-02-11T06:47:57.660Z,101121.31
2023-02-11T06:48:37.712Z,101107.66
2023-02-11T06:49:17.643Z,101097.84
2023-02-11T06:49:57.699Z,101096.47
2023-02-11T06:50:37.606Z,101108.34
2023-02-11T06:51:20.830Z,101102.47
2023-02-11T06:52:00.630Z,101085.75
2023-02-11T06:52:41.763Z,101100.97
2023-02-11T06:53:21.644Z,101111.75
2023-02-11T06:54:04.708Z,101098.47
2023-02-11T06:54:44.645Z,101083.84
2023-02-11T06:55:25.666Z,101084.72
2023-02-11T06:56:18.628Z,101095.31
2023-02-11T06:56:58.740Z,101110.84
2023-02-11T06:57:39.600Z,101095.41
2023-02-11T06:58:19.775Z,101085.09
2023-02-11T06:59:04.641Z,101109.34
2023-02-11T06:59:44.674Z,101096.06
2023-02-11T07:00:25.594Z,101094.66
2023-02-11T07:01:06.636Z,101088.13
2023-02-11T07:01:46.660Z,101118.53
2023-02-11T07:02:26.724Z,101113.56
2023-02-11T07:03:06.641Z,101107.69
2023-02-11T07:03:50.691Z,101104.88
2023-02-11T07:04:30.658Z,101093.78
2023-02-11T07:05:13.732Z,101096.59
2023-02-11T07:05:53.597Z,101115.38
2023-02-11T07:06:34.883Z,101104.75
2023-02-11T07:07:14.610Z,101095.66
2023-02-11T07:07:54.664Z,101099.94
2023-02-11T07:08:34.603Z,101081.31
2023-02-11T07:09:15.662Z,101103.47
2023-02-11T07:09:55.596Z,101072.09
2023-02-11T07:10:35.642Z,101110.25
2023-02-11T07:11:22.618Z,101090.19
2023-02-11T07:12:03.677Z,101113.75
2023-02-11T07:12:45.606Z,101098.06
2023-02-11T07:13:25.653Z,101107.22
2023-02-11T07:14:19.617Z,101092.16
2023-02-11T07:14:53.391Z,101102.75
2023-02-11T07:15:33.598Z,101099.28
2023-02-11T07:16:13.719Z,101106.84
2023-02-11T07:16:47.249Z,101112.22
2023-02-11T07:17:27.613Z,101117.31
2023-02-11T07:18:01.677Z,101121.19
2023-02-11T07:18:35.426Z,101116.38
2023-02-11T07:19:16.075Z,101119.09
2023-02-11T07:19:50.675Z,101114.34
2023-02-11T07:20:24.602Z,101113.03
2023-02-11T07:21:05.672Z,101113.09
2023-02-11T07:21:39.653Z,101145.09
2023-02-11T07:22:13.344Z,101128.72
2023-02-11T07:22:55.585Z,101118.66
2023-02-11T07:23:29.671Z,101129.19
2023-02-11T07:24:10.915Z,101106.47
2023-02-11T07:24:52.601Z,101118.78
2023-02-11T07:25:26.667Z,101125.72
2023-02-11T07:26:05.391Z,101129.19
2023-02-11T07:26:45.609Z,101136.16
2023-02-11T07:27:19.649Z,101128.66
2023-02-11T07:27:54.323Z,101103.13
2023-02-11T07:28:34.617Z,101111.09
2023-02-11T07:29:08.654Z,101119.31
2023-02-11T07:29:43.399Z,101121.84
2023-02-11T07:30:25.614Z,101111.97
2023-02-11T07:30:59.787Z,101094.88
2023-02-11T07:31:33.326Z,101111.84
2023-02-11T07:32:14.655Z,101116.50
2023-02-11T07:32:48.634Z,101118.13
2023-02-11T07:33:22.305Z,101111.28
2023-02-11T07:34:06.563Z,101127.06
2023-02-11T07:34:48.198Z,101116.72
2023-02-11T07:35:28.573Z,101108.06
2023-02-11T07:36:09.599Z,101113.31
2023-02-11T07:36:51.587Z,101100.41
2023-02-11T07:37:38.639Z,101112.72
2023-02-11T07:38:12.261Z,101103.78
2023-02-11T07:39:00.838Z,101120.56
2023-02-11T07:39:34.312Z,101098.59
2023-02-11T07:40:23.556Z,101094.06
2023-02-11T07:41:05.484Z,101118.78
2023-02-11T07:41:54.565Z,101082.41
2023-02-11T07:42:28.289Z,101103.56
2023-02-11T07:43:09.591Z,101084.06
2023-02-11T07:43:44.632Z,101109.28
2023-02-11T07:44:18.682Z,101111.97
2023-02-11T07:44:59.572Z,101103.44
2023-02-11T07:45:33.639Z,101089.25
2023-02-11T07:46:10.682Z,101095.72
2023-02-11T07:46:51.648Z,101109.88
2023-02-11T07:47:25.638Z,101097.53
2023-02-11T07:47:59.244Z,101099.66
2023-02-11T07:48:39.558Z,101108.28
2023-02-11T07:49:13.609Z,101089.97
2023-02-11T07:49:47.662Z,101094.88
2023-02-11T07:50:27.568Z,101104.06
2023-02-11T07:51:01.604Z,101095.09
2023-02-11T07:51:35.240Z,101090.78
2023-02-11T07:52:16.553Z,101117.78
2023-02-11T07:52:53.820Z,101102.47
2023-02-11T07:53:29.388Z,101110.06
2023-02-11T07:54:10.584Z,101121.84
2023-02-11T07:54:44.643Z,101102.88
2023-02-11T07:55:18.364Z,101103.31
2023-02-11T07:55:59.524Z,101128.78
2023-02-11T07:56:34.615Z,101123.41
2023-02-11T07:57:09.306Z,101101.00
2023-02-11T07:57:50.584Z,101124.38
2023-02-11T07:58:24.591Z,101119.38
2023-02-11T07:59:01.838Z,101108.53
2023-02-11T07:59:41.569Z,101107.81
2023-02-11T08:00:19.335Z,101110.25
2023-02-11T08:00:55.820Z,101115.63
2023-02-11T08:01:37.557Z,101123.56
2023-02-11T08:02:11.666Z,101102.88
2023-02-11T08:02:45.243Z,101122.66
2023-02-11T08:03:25.549Z,101099.28
2023-02-11T08:03:59.667Z,101114.13
2023-02-11T08:04:33.337Z,101117.69
2023-02-11T08:05:14.580Z,101098.09
2023-02-11T08:05:48.663Z,101115.69
2023-02-11T08:06:24.351Z,101103.19
2023-02-11T08:07:05.565Z,101104.41
2023-02-11T08:07:39.607Z,101112.50
2023-02-11T08:08:13.431Z,101105.63
2023-02-11T08:08:55.570Z,101124.25
2023-02-11T08:09:34.388Z,101090.06
2023-02-11T08:10:09.866Z,101108.38
2023-02-11T08:10:50.761Z,101078.63
2023-02-11T08:11:34.697Z,101104.81
2023-02-11T08:12:09.220Z,101093.25
2023-02-11T08:12:49.534Z,101103.44
2023-02-11T08:13:23.635Z,101085.88
2023-02-11T08:13:57.296Z,101101.41
2023-02-11T08:14:39.542Z,101080.28
2023-02-11T08:15:13.638Z,101073.50
2023-02-11T08:15:51.032Z,101052.50
2023-02-11T08:16:41.628Z,101090.19
2023-02-11T08:17:15.651Z,101082.19
2023-02-11T08:17:49.248Z,101090.31
2023-02-11T08:18:29.557Z,101094.59
2023-02-11T08:19:06.629Z,101096.16
2023-02-11T08:19:42.856Z,101100.75
2023-02-11T08:20:23.514Z,101100.59
2023-02-11T08:20:57.573Z,101125.56
2023-02-11T08:21:31.506Z,101103.66
2023-02-11T08:22:11.514Z,101092.97
2023-02-11T08:22:45.626Z,101099.53